sensor_id;sensor_type;location;lat;lon;timestamp;pressure;altitude;pressure_sealevel;temperature;humidity
41260;BME280;26993;48.958;9.330;2022-07-23T00:01:21;98374.28;;;24.10;67.33
41260;BME280;26993;48.958;9.330;2022-07-23T00:04:08;98361.72;;;24.15;66.93
41260;BME280;26993;48.958;9.330;2022-07-23T00:06:55;98354.66;;;24.15;66.60
41260;BME280;26993;48.958;9.330;2022-07-23T00:09:42;98363.03;;;24.07;66.69
41260;BME280;26993;48.958;9.330;2022-07-23T00:12:28;98367.34;;;24.08;66.75
41260;BME280;26993;48.958;9.330;2022-07-23T00:15:15;98361.06;;;24.11;66.57
41260;BME280;26993;48.958;9.330;2022-07-23T00:18:04;98362.19;;;24.21;65.50
41260;BME280;26993;48.958;9.330;2022-07-23T00:20:51;98352.69;;;24.19;64.40
41260;BME280;26993;48.958;9.330;2022-07-23T00:23:38;98338.88;;;24.15;63.40
41260;BME280;26993;48.958;9.330;2022-07-23T00:26:25;98347.97;;;24.10;63.83
41260;BME280;26993;48.958;9.330;2022-07-23T00:29:12;98351.88;;;24.18;62.80
41260;BME280;26993;48.958;9.330;2022-07-23T00:31:58;98357.44;;;24.28;63.08
41260;BME280;26993;48.958;9.330;2022-07-23T00:34:47;98345.47;;;24.22;62.66
41260;BME280;26993;48.958;9.330;2022-07-23T00:37:33;98329.78;;;24.21;62.14
41260;BME280;26993;48.958;9.330;2022-07-23T00:40:20;98332.31;;;24.22;61.81
41260;BME280;26993;48.958;9.330;2022-07-23T00:43:07;98327.78;;;24.10;62.94
41260;BME280;26993;48.958;9.330;2022-07-23T00:45:54;98333.94;;;23.95;62.90
41260;BME280;26993;48.958;9.330;2022-07-23T00:48:41;98327.25;;;24.19;62.76
41260;BME280;26993;48.958;9.330;2022-07-23T00:51:29;98324.53;;;24.35;61.41
41260;BME280;26993;48.958;9.330;2022-07-23T00:54:16;98321.22;;;24.17;62.41
41260;BME280;26993;48.958;9.330;2022-07-23T00:57:03;98330.41;;;24.10;62.79
41260;BME280;26993;48.958;9.330;2022-07-23T00:59:50;98326.91;;;24.10;62.57
41260;BME280;26993;48.958;9.330;2022-07-23T01:02:37;98328.53;;;23.98;62.69
41260;BME280;26993;48.958;9.330;2022-07-23T01:05:24;98331.16;;;23.98;62.47
41260;BME280;26993;48.958;9.330;2022-07-23T01:08:12;98335.13;;;24.05;62.89
41260;BME280;26993;48.958;9.330;2022-07-23T01:10:59;98324.09;;;23.98;63.02
41260;BME280;26993;48.958;9.330;2022-07-23T01:13:46;98333.69;;;23.99;62.42
41260;BME280;26993;48.958;9.330;2022-07-23T01:16:32;98329.56;;;24.10;62.76
41260;BME280;26993;48.958;9.330;2022-07-23T01:19:19;98328.06;;;24.05;62.47
41260;BME280;26993;48.958;9.330;2022-07-23T01:22:06;98318.28;;;23.91;62.79
41260;BME280;26993;48.958;9.330;2022-07-23T01:24:54;98317.13;;;23.97;62.18
41260;BME280;26993;48.958;9.330;2022-07-23T01:27:41;98324.59;;;23.89;62.75
41260;BME280;26993;48.958;9.330;2022-07-23T01:30:29;98324.91;;;23.68;64.27
41260;BME280;26993;48.958;9.330;2022-07-23T01:33:15;98324.84;;;23.54;64.90
41260;BME280;26993;48.958;9.330;2022-07-23T01:36:02;98314.69;;;23.48;65.27
41260;BME280;26993;48.958;9.330;2022-07-23T01:38:49;98302.47;;;23.47;65.67
41260;BME280;26993;48.958;9.330;2022-07-23T01:41:37;98303.75;;;23.39;65.60
41260;BME280;26993;48.958;9.330;2022-07-23T01:44:24;98309.78;;;23.41;65.82
41260;BME280;26993;48.958;9.330;2022-07-23T01:47:11;98312.50;;;23.24;65.90
41260;BME280;26993;48.958;9.330;2022-07-23T01:49:57;98303.34;;;23.31;65.64
41260;BME280;26993;48.958;9.330;2022-07-23T01:52:44;98312.75;;;23.19;65.89
41260;BME280;26993;48.958;9.330;2022-07-23T01:55:31;98318.22;;;22.82;66.96
41260;BME280;26993;48.958;9.330;2022-07-23T01:58:19;98315.72;;;22.97;66.56
41260;BME280;26993;48.958;9.330;2022-07-23T02:01:06;98311.81;;;23.04;66.26
41260;BME280;26993;48.958;9.330;2022-07-23T02:03:52;98306.56;;;23.04;65.93
41260;BME280;26993;48.958;9.330;2022-07-23T02:06:39;98316.88;;;22.91;66.63
41260;BME280;26993;48.958;9.330;2022-07-23T02:09:26;98322.53;;;22.84;67.17
41260;BME280;26993;48.958;9.330;2022-07-23T02:12:12;98329.00;;;22.78;66.97
41260;BME280;26993;48.958;9.330;2022-07-23T02:15:01;98329.03;;;22.76;67.97
41260;BME280;26993;48.958;9.330;2022-07-23T02:17:47;98328.13;;;22.77;69.23
41260;BME280;26993;48.958;9.330;2022-07-23T02:20:34;98331.97;;;22.54;70.56
41260;BME280;26993;48.958;9.330;2022-07-23T02:23:23;98327.75;;;22.34;70.81
41260;BME280;26993;48.958;9.330;2022-07-23T02:26:10;98322.97;;;22.25;71.32
41260;BME280;26993;48.958;9.330;2022-07-23T02:28:57;98334.59;;;22.19;71.17
41260;BME280;26993;48.958;9.330;2022-07-23T02:31:45;98358.63;;;21.76;73.06
41260;BME280;26993;48.958;9.330;2022-07-23T02:34:32;98371.97;;;21.33;73.66
41260;BME280;26993;48.958;9.330;2022-07-23T02:37:19;98380.47;;;21.58;72.62
41260;BME280;26993;48.958;9.330;2022-07-23T02:40:06;98379.91;;;21.70;72.11
41260;BME280;26993;48.958;9.330;2022-07-23T02:42:53;98378.66;;;21.77;71.76
41260;BME280;26993;48.958;9.330;2022-07-23T02:45:40;98371.19;;;21.87;71.76
41260;BME280;26993;48.958;9.330;2022-07-23T02:48:28;98374.13;;;21.81;72.15
41260;BME280;26993;48.958;9.330;2022-07-23T02:51:14;98392.31;;;21.84;72.49
41260;BME280;26993;48.958;9.330;2022-07-23T02:54:01;98396.38;;;21.53;73.16
41260;BME280;26993;48.958;9.330;2022-07-23T02:56:48;98401.78;;;21.50;73.29
41260;BME280;26993;48.958;9.330;2022-07-23T02:59:36;98401.81;;;21.48;73.17
41260;BME280;26993;48.958;9.330;2022-07-23T03:02:22;98406.53;;;21.42;73.42
41260;BME280;26993;48.958;9.330;2022-07-23T03:05:10;98399.69;;;21.56;73.18
41260;BME280;26993;48.958;9.330;2022-07-23T03:07:57;98406.81;;;21.54;73.46
41260;BME280;26993;48.958;9.330;2022-07-23T03:10:44;98406.03;;;21.52;73.97
41260;BME280;26993;48.958;9.330;2022-07-23T03:13:30;98404.19;;;21.54;74.81
41260;BME280;26993;48.958;9.330;2022-07-23T03:16:17;98404.19;;;21.54;74.47
41260;BME280;26993;48.958;9.330;2022-07-23T03:19:04;98415.25;;;21.61;74.60
41260;BME280;26993;48.958;9.330;2022-07-23T03:21:52;98422.34;;;21.59;74.02
41260;BME280;26993;48.958;9.330;2022-07-23T03:24:39;98414.59;;;21.56;73.80
41260;BME280;26993;48.958;9.330;2022-07-23T03:27:40;98416.41;;;21.54;73.76
41260;BME280;26993;48.958;9.330;2022-07-23T03:30:27;98419.56;;;21.62;72.93
41260;BME280;26993;48.958;9.330;2022-07-23T03:33:14;98421.69;;;21.73;72.59
41260;BME280;26993;48.958;9.330;2022-07-23T03:36:02;98411.34;;;21.70;72.29
41260;BME280;26993;48.958;9.330;2022-07-23T03:38:50;98414.59;;;21.75;72.21
41260;BME280;26993;48.958;9.330;2022-07-23T03:41:37;98417.50;;;21.69;72.47
41260;BME280;26993;48.958;9.330;2022-07-23T03:44:24;98418.22;;;21.73;72.28
41260;BME280;26993;48.958;9.330;2022-07-23T03:47:11;98420.97;;;21.69;72.36
41260;BME280;26993;48.958;9.330;2022-07-23T03:49:57;98426.28;;;21.49;73.45
41260;BME280;26993;48.958;9.330;2022-07-23T03:52:44;98431.06;;;21.60;72.52
41260;BME280;26993;48.958;9.330;2022-07-23T03:55:32;98430.59;;;21.50;72.77
41260;BME280;26993;48.958;9.330;2022-07-23T03:58:19;98432.56;;;21.45;73.08
41260;BME280;26993;48.958;9.330;2022-07-23T04:01:06;98420.84;;;21.34;73.60
41260;BME280;26993;48.958;9.330;2022-07-23T04:03:53;98418.22;;;21.53;73.25
41260;BME280;26993;48.958;9.330;2022-07-23T04:06:39;98418.56;;;21.46;73.48
41260;BME280;26993;48.958;9.330;2022-07-23T04:09:26;98427.28;;;21.46;73.60
41260;BME280;26993;48.958;9.330;2022-07-23T04:12:14;98430.81;;;21.45;74.23
41260;BME280;26993;48.958;9.330;2022-07-23T04:15:01;98425.50;;;21.47;74.40
41260;BME280;26993;48.958;9.330;2022-07-23T04:17:48;98429.69;;;21.51;74.15
41260;BME280;26993;48.958;9.330;2022-07-23T04:20:35;98424.09;;;21.59;74.08
41260;BME280;26993;48.958;9.330;2022-07-23T04:23:21;98424.03;;;21.60;74.67
41260;BME280;26993;48.958;9.330;2022-07-23T04:26:08;98427.91;;;21.70;75.01
41260;BME280;26993;48.958;9.330;2022-07-23T04:28:56;98426.78;;;21.76;74.23
41260;BME280;26993;48.958;9.330;2022-07-23T04:31:43;98432.09;;;21.75;74.10
41260;BME280;26993;48.958;9.330;2022-07-23T04:34:29;98435.88;;;21.86;74.42
41260;BME280;26993;48.958;9.330;2022-07-23T04:37:16;98432.75;;;21.97;74.26
41260;BME280;26993;48.958;9.330;2022-07-23T04:40:04;98427.22;;;22.03;75.02
41260;BME280;26993;48.958;9.330;2022-07-23T04:42:51;98434.78;;;22.10;74.79
41260;BME280;26993;48.958;9.330;2022-07-23T04:45:39;98434.47;;;22.16;74.85
41260;BME280;26993;48.958;9.330;2022-07-23T04:48:26;98436.78;;;22.22;75.70
41260;BME280;26993;48.958;9.330;2022-07-23T04:51:12;98435.03;;;22.23;75.20
41260;BME280;26993;48.958;9.330;2022-07-23T04:53:59;98432.31;;;22.24;74.06
41260;BME280;26993;48.958;9.330;2022-07-23T04:56:46;98434.50;;;22.33;72.37
41260;BME280;26993;48.958;9.330;2022-07-23T04:59:33;98439.88;;;22.13;73.34
41260;BME280;26993;48.958;9.330;2022-07-23T05:02:21;98446.84;;;22.31;72.47
41260;BME280;26993;48.958;9.330;2022-07-23T05:05:08;98456.34;;;22.34;73.86
41260;BME280;26993;48.958;9.330;2022-07-23T05:07:55;98452.59;;;22.40;73.55
41260;BME280;26993;48.958;9.330;2022-07-23T05:10:41;98459.53;;;22.58;72.11
41260;BME280;26993;48.958;9.330;2022-07-23T05:13:28;98465.59;;;22.76;71.33
41260;BME280;26993;48.958;9.330;2022-07-23T05:16:15;98470.53;;;23.00;70.35
41260;BME280;26993;48.958;9.330;2022-07-23T05:19:03;98464.06;;;23.23;69.26
41260;BME280;26993;48.958;9.330;2022-07-23T05:21:49;98449.84;;;23.43;69.27
41260;BME280;26993;48.958;9.330;2022-07-23T05:24:36;98451.31;;;23.49;69.37
41260;BME280;26993;48.958;9.330;2022-07-23T05:27:23;98454.84;;;23.32;70.10
41260;BME280;26993;48.958;9.330;2022-07-23T05:30:10;98460.59;;;23.23;70.35
41260;BME280;26993;48.958;9.330;2022-07-23T05:32:57;98464.44;;;23.49;69.00
41260;BME280;26993;48.958;9.330;2022-07-23T05:35:46;98470.31;;;23.70;68.48
41260;BME280;26993;48.958;9.330;2022-07-23T05:38:32;98462.44;;;25.52;64.58
41260;BME280;26993;48.958;9.330;2022-07-23T05:41:19;98466.78;;;28.01;58.02
41260;BME280;26993;48.958;9.330;2022-07-23T05:44:06;98461.00;;;28.56;55.36
41260;BME280;26993;48.958;9.330;2022-07-23T05:46:53;98483.13;;;27.58;57.71
41260;BME280;26993;48.958;9.330;2022-07-23T05:49:39;98491.09;;;26.40;61.95
41260;BME280;26993;48.958;9.330;2022-07-23T05:52:27;98492.38;;;25.50;64.57
41260;BME280;26993;48.958;9.330;2022-07-23T05:55:14;98507.38;;;24.76;67.78
41260;BME280;26993;48.958;9.330;2022-07-23T05:58:01;98514.19;;;24.34;70.08
41260;BME280;26993;48.958;9.330;2022-07-23T06:00:47;98522.34;;;23.97;71.67
41260;BME280;26993;48.958;9.330;2022-07-23T06:03:34;98527.41;;;23.68;72.28
41260;BME280;26993;48.958;9.330;2022-07-23T06:06:21;98532.81;;;23.65;72.05
41260;BME280;26993;48.958;9.330;2022-07-23T06:09:09;98540.59;;;23.35;72.40
41260;BME280;26993;48.958;9.330;2022-07-23T06:11:58;98541.69;;;23.13;73.47
41260;BME280;26993;48.958;9.330;2022-07-23T06:14:45;98538.13;;;22.96;73.76
41260;BME280;26993;48.958;9.330;2022-07-23T06:17:34;98533.59;;;22.65;74.67
41260;BME280;26993;48.958;9.330;2022-07-23T06:20:20;98524.44;;;22.37;76.45
41260;BME280;26993;48.958;9.330;2022-07-23T06:23:07;98527.72;;;22.60;75.83
41260;BME280;26993;48.958;9.330;2022-07-23T06:25:55;98521.66;;;22.40;77.83
41260;BME280;26993;48.958;9.330;2022-07-23T06:28:42;98509.47;;;22.39;77.16
41260;BME280;26993;48.958;9.330;2022-07-23T06:31:29;98493.78;;;22.01;79.14
41260;BME280;26993;48.958;9.330;2022-07-23T06:34:15;98493.03;;;21.99;78.20
41260;BME280;26993;48.958;9.330;2022-07-23T06:39:48;98497.56;;;21.95;79.52
41260;BME280;26993;48.958;9.330;2022-07-23T06:42:36;98511.16;;;22.03;78.47
41260;BME280;26993;48.958;9.330;2022-07-23T06:45:24;98510.66;;;22.32;76.39
41260;BME280;26993;48.958;9.330;2022-07-23T06:48:11;98516.69;;;22.34;76.65
41260;BME280;26993;48.958;9.330;2022-07-23T06:51:00;98519.53;;;22.29;76.13
41260;BME280;26993;48.958;9.330;2022-07-23T06:53:47;98524.56;;;22.34;76.30
41260;BME280;26993;48.958;9.330;2022-07-23T06:56:34;98528.19;;;22.31;76.50
41260;BME280;26993;48.958;9.330;2022-07-23T06:59:22;98537.06;;;22.48;76.36
41260;BME280;26993;48.958;9.330;2022-07-23T07:02:09;98547.00;;;22.41;76.12
41260;BME280;26993;48.958;9.330;2022-07-23T07:04:56;98558.81;;;22.31;77.53
41260;BME280;26993;48.958;9.330;2022-07-23T07:07:42;98569.69;;;22.42;77.16
41260;BME280;26993;48.958;9.330;2022-07-23T07:10:29;98571.31;;;22.26;77.99
41260;BME280;26993;48.958;9.330;2022-07-23T07:13:16;98586.28;;;22.05;78.79
41260;BME280;26993;48.958;9.330;2022-07-23T07:16:04;98596.56;;;21.71;80.94
41260;BME280;26993;48.958;9.330;2022-07-23T07:18:51;98605.34;;;21.49;81.63
41260;BME280;26993;48.958;9.330;2022-07-23T07:21:38;98609.25;;;21.20;83.61
41260;BME280;26993;48.958;9.330;2022-07-23T07:24:24;98607.56;;;20.97;87.03
41260;BME280;26993;48.958;9.330;2022-07-23T07:27:11;98595.78;;;20.64;88.93
41260;BME280;26993;48.958;9.330;2022-07-23T07:29:58;98579.97;;;20.45;90.25
41260;BME280;26993;48.958;9.330;2022-07-23T07:32:46;98576.72;;;20.18;90.89
41260;BME280;26993;48.958;9.330;2022-07-23T07:35:33;98572.81;;;20.06;92.46
41260;BME280;26993;48.958;9.330;2022-07-23T07:38:19;98545.53;;;19.89;94.29
41260;BME280;26993;48.958;9.330;2022-07-23T07:41:06;98547.81;;;19.73;96.49
41260;BME280;26993;48.958;9.330;2022-07-23T07:43:55;98538.53;;;19.90;96.23
41260;BME280;26993;48.958;9.330;2022-07-23T07:46:42;98557.69;;;19.90;97.02
41260;BME280;26993;48.958;9.330;2022-07-23T07:49:30;98552.66;;;20.08;95.56
41260;BME280;26993;48.958;9.330;2022-07-23T07:52:16;98564.22;;;20.24;95.70
41260;BME280;26993;48.958;9.330;2022-07-23T07:55:04;98568.28;;;20.32;96.12
41260;BME280;26993;48.958;9.330;2022-07-23T07:57:51;98575.78;;;20.41;94.88
41260;BME280;26993;48.958;9.330;2022-07-23T08:00:38;98577.34;;;20.45;94.72
41260;BME280;26993;48.958;9.330;2022-07-23T08:03:25;98583.81;;;20.58;95.82
41260;BME280;26993;48.958;9.330;2022-07-23T08:06:13;98588.31;;;20.77;94.06
41260;BME280;26993;48.958;9.330;2022-07-23T08:09:00;98585.44;;;21.04;94.58
41260;BME280;26993;48.958;9.330;2022-07-23T08:11:46;98594.69;;;21.33;90.16
41260;BME280;26993;48.958;9.330;2022-07-23T08:14:33;98608.13;;;21.26;90.64
41260;BME280;26993;48.958;9.330;2022-07-23T08:17:20;98614.66;;;21.36;91.36
41260;BME280;26993;48.958;9.330;2022-07-23T08:20:08;98613.16;;;21.10;93.72
41260;BME280;26993;48.958;9.330;2022-07-23T08:22:59;98612.41;;;20.63;98.39
41260;BME280;26993;48.958;9.330;2022-07-23T08:25:46;98606.22;;;20.43;99.10
41260;BME280;26993;48.958;9.330;2022-07-23T08:28:33;98606.75;;;20.52;99.92
41260;BME280;26993;48.958;9.330;2022-07-23T08:31:19;98618.13;;;20.51;99.85
41260;BME280;26993;48.958;9.330;2022-07-23T08:34:06;98620.13;;;20.44;100.00
41260;BME280;26993;48.958;9.330;2022-07-23T08:36:53;98618.06;;;20.30;100.00
41260;BME280;26993;48.958;9.330;2022-07-23T08:39:41;98617.75;;;20.16;100.00
41260;BME280;26993;48.958;9.330;2022-07-23T08:42:28;98618.25;;;20.25;100.00
41260;BME280;26993;48.958;9.330;2022-07-23T08:45:17;98602.38;;;20.30;98.08
41260;BME280;26993;48.958;9.330;2022-07-23T08:48:05;98618.91;;;20.31;99.42
41260;BME280;26993;48.958;9.330;2022-07-23T08:50:55;98615.41;;;20.54;100.00
41260;BME280;26993;48.958;9.330;2022-07-23T08:53:42;98628.78;;;20.68;96.92
41260;BME280;26993;48.958;9.330;2022-07-23T08:56:31;98622.53;;;21.15;95.85
41260;BME280;26993;48.958;9.330;2022-07-23T08:59:18;98630.28;;;21.39;93.90
41260;BME280;26993;48.958;9.330;2022-07-23T09:02:05;98620.72;;;21.17;90.21
41260;BME280;26993;48.958;9.330;2022-07-23T09:04:52;98617.28;;;21.36;90.53
41260;BME280;26993;48.958;9.330;2022-07-23T09:08:03;98609.38;;;21.58;88.35
41260;BME280;26993;48.958;9.330;2022-07-23T09:10:52;98586.72;;;21.76;89.05
41260;BME280;26993;48.958;9.330;2022-07-23T09:13:42;98598.94;;;21.77;90.70
41260;BME280;26993;48.958;9.330;2022-07-23T09:16:31;98601.81;;;22.09;86.81
41260;BME280;26993;48.958;9.330;2022-07-23T09:19:27;98586.97;;;22.27;86.49
41260;BME280;26993;48.958;9.330;2022-07-23T09:22:18;98592.59;;;22.58;84.95
41260;BME280;26993;48.958;9.330;2022-07-23T09:25:09;98608.88;;;23.19;84.84
41260;BME280;26993;48.958;9.330;2022-07-23T09:27:57;98601.50;;;23.08;80.11
41260;BME280;26993;48.958;9.330;2022-07-23T09:30:51;98601.94;;;23.16;79.07
41260;BME280;26993;48.958;9.330;2022-07-23T09:33:37;98607.94;;;23.71;79.09
41260;BME280;26993;48.958;9.330;2022-07-23T09:36:28;98600.00;;;23.88;78.23
41260;BME280;26993;48.958;9.330;2022-07-23T09:39:21;98598.41;;;24.18;75.58
41260;BME280;26993;48.958;9.330;2022-07-23T09:42:13;98607.00;;;24.21;75.46
41260;BME280;26993;48.958;9.330;2022-07-23T09:45:01;98594.09;;;24.33;74.23
41260;BME280;26993;48.958;9.330;2022-07-23T09:47:49;98593.28;;;24.47;73.43
41260;BME280;26993;48.958;9.330;2022-07-23T09:50:37;98596.84;;;24.62;74.12
41260;BME280;26993;48.958;9.330;2022-07-23T09:53:24;98598.47;;;24.64;73.84
41260;BME280;26993;48.958;9.330;2022-07-23T09:56:13;98599.06;;;24.69;73.50
41260;BME280;26993;48.958;9.330;2022-07-23T09:59:01;98602.47;;;24.39;73.61
41260;BME280;26993;48.958;9.330;2022-07-23T10:01:52;98599.16;;;24.68;73.52
41260;BME280;26993;48.958;9.330;2022-07-23T10:04:40;98588.94;;;24.78;70.92
41260;BME280;26993;48.958;9.330;2022-07-23T10:07:31;98587.53;;;24.72;72.59
41260;BME280;26993;48.958;9.330;2022-07-23T10:10:19;98597.75;;;24.93;71.08
41260;BME280;26993;48.958;9.330;2022-07-23T10:13:09;98589.34;;;25.16;71.89
41260;BME280;26993;48.958;9.330;2022-07-23T10:16:31;98594.75;;;25.44;67.89
41260;BME280;26993;48.958;9.330;2022-07-23T10:19:21;98593.34;;;25.81;65.80
41260;BME280;26993;48.958;9.330;2022-07-23T10:22:13;98589.28;;;25.90;67.61
41260;BME280;26993;48.958;9.330;2022-07-23T10:25:10;98590.31;;;26.02;65.04
41260;BME280;26993;48.958;9.330;2022-07-23T10:28:12;98594.84;;;25.71;65.99
41260;BME280;26993;48.958;9.330;2022-07-23T10:31:08;98585.88;;;25.88;66.55
41260;BME280;26993;48.958;9.330;2022-07-23T10:34:01;98589.00;;;25.95;64.54
41260;BME280;26993;48.958;9.330;2022-07-23T10:36:53;98589.84;;;25.95;65.05
41260;BME280;26993;48.958;9.330;2022-07-23T10:39:41;98589.84;;;25.66;65.24
41260;BME280;26993;48.958;9.330;2022-07-23T10:42:33;98586.63;;;25.90;64.23
41260;BME280;26993;48.958;9.330;2022-07-23T10:45:25;98582.28;;;26.18;63.77
41260;BME280;26993;48.958;9.330;2022-07-23T10:48:15;98580.69;;;26.16;64.13
41260;BME280;26993;48.958;9.330;2022-07-23T10:51:09;98577.53;;;26.38;63.57
41260;BME280;26993;48.958;9.330;2022-07-23T10:53:57;98583.44;;;26.69;61.17
41260;BME280;26993;48.958;9.330;2022-07-23T10:56:51;98578.59;;;26.75;61.12
41260;BME280;26993;48.958;9.330;2022-07-23T11:00:15;98578.34;;;26.66;60.21
41260;BME280;26993;48.958;9.330;2022-07-23T11:03:04;98584.97;;;26.58;61.89
41260;BME280;26993;48.958;9.330;2022-07-23T11:05:52;98581.19;;;26.90;60.38
41260;BME280;26993;48.958;9.330;2022-07-23T11:08:39;98582.47;;;26.97;61.37
41260;BME280;26993;48.958;9.330;2022-07-23T11:11:25;98575.16;;;26.88;62.06
41260;BME280;26993;48.958;9.330;2022-07-23T11:14:13;98580.34;;;27.15;60.76
41260;BME280;26993;48.958;9.330;2022-07-23T11:17:00;98585.03;;;27.37;60.88
41260;BME280;26993;48.958;9.330;2022-07-23T11:20:12;98575.00;;;27.55;58.18
41260;BME280;26993;48.958;9.330;2022-07-23T11:23:00;98577.84;;;27.65;57.50
41260;BME280;26993;48.958;9.330;2022-07-23T11:25:49;98578.06;;;27.36;59.29
41260;BME280;26993;48.958;9.330;2022-07-23T11:28:35;98576.81;;;27.55;57.96
41260;BME280;26993;48.958;9.330;2022-07-23T11:31:25;98571.53;;;27.42;58.51
41260;BME280;26993;48.958;9.330;2022-07-23T11:34:28;98564.94;;;27.22;58.99
41260;BME280;26993;48.958;9.330;2022-07-23T11:37:28;98567.06;;;27.43;57.13
41260;BME280;26993;48.958;9.330;2022-07-23T11:40:16;98555.44;;;27.32;57.61
41260;BME280;26993;48.958;9.330;2022-07-23T11:43:04;98556.69;;;27.52;58.13
41260;BME280;26993;48.958;9.330;2022-07-23T11:45:53;98568.13;;;27.53;57.78
41260;BME280;26993;48.958;9.330;2022-07-23T11:48:41;98572.13;;;27.33;59.52
41260;BME280;26993;48.958;9.330;2022-07-23T11:51:28;98562.59;;;27.17;59.79
41260;BME280;26993;48.958;9.330;2022-07-23T11:54:17;98570.41;;;27.19;59.83
41260;BME280;26993;48.958;9.330;2022-07-23T11:57:03;98563.75;;;27.39;60.22
41260;BME280;26993;48.958;9.330;2022-07-23T11:59:52;98556.88;;;27.36;59.01
41260;BME280;26993;48.958;9.330;2022-07-23T12:02:42;98559.22;;;27.28;59.90
41260;BME280;26993;48.958;9.330;2022-07-23T12:05:34;98556.56;;;27.41;59.69
41260;BME280;26993;48.958;9.330;2022-07-23T12:08:21;98552.25;;;27.66;59.89
41260;BME280;26993;48.958;9.330;2022-07-23T12:11:11;98533.34;;;27.83;59.37
41260;BME280;26993;48.958;9.330;2022-07-23T12:13:58;98543.94;;;27.83;59.16
41260;BME280;26993;48.958;9.330;2022-07-23T12:16:45;98535.06;;;27.71;59.20
41260;BME280;26993;48.958;9.330;2022-07-23T12:19:32;98535.59;;;27.77;57.14
41260;BME280;26993;48.958;9.330;2022-07-23T12:22:20;98540.34;;;27.71;58.35
41260;BME280;26993;48.958;9.330;2022-07-23T12:25:10;98533.50;;;27.56;58.42
41260;BME280;26993;48.958;9.330;2022-07-23T12:28:00;98534.88;;;27.49;57.01
41260;BME280;26993;48.958;9.330;2022-07-23T12:30:48;98535.75;;;27.62;57.71
41260;BME280;26993;48.958;9.330;2022-07-23T12:33:39;98532.31;;;27.73;58.02
41260;BME280;26993;48.958;9.330;2022-07-23T12:36:36;98524.66;;;27.81;56.14
41260;BME280;26993;48.958;9.330;2022-07-23T12:39:32;98527.84;;;27.86;56.91
41260;BME280;26993;48.958;9.330;2022-07-23T12:42:19;98532.56;;;28.07;56.42
41260;BME280;26993;48.958;9.330;2022-07-23T12:45:08;98533.75;;;28.27;57.02
41260;BME280;26993;48.958;9.330;2022-07-23T12:48:02;98536.72;;;28.47;55.85
41260;BME280;26993;48.958;9.330;2022-07-23T12:50:53;98538.47;;;28.35;54.66
41260;BME280;26993;48.958;9.330;2022-07-23T12:53:42;98540.63;;;28.30;55.94
41260;BME280;26993;48.958;9.330;2022-07-23T12:56:32;98542.63;;;28.50;54.55
41260;BME280;26993;48.958;9.330;2022-07-23T12:59:19;98544.53;;;28.48;54.03
41260;BME280;26993;48.958;9.330;2022-07-23T13:02:08;98548.81;;;28.51;54.20
41260;BME280;26993;48.958;9.330;2022-07-23T13:04:55;98534.94;;;28.47;55.03
41260;BME280;26993;48.958;9.330;2022-07-23T13:07:42;98547.03;;;28.63;54.37
41260;BME280;26993;48.958;9.330;2022-07-23T13:10:29;98542.88;;;28.72;54.14
41260;BME280;26993;48.958;9.330;2022-07-23T13:13:19;98547.72;;;28.89;54.66
41260;BME280;26993;48.958;9.330;2022-07-23T13:16:06;98543.16;;;28.91;53.06
41260;BME280;26993;48.958;9.330;2022-07-23T13:18:53;98543.66;;;28.61;54.90
41260;BME280;26993;48.958;9.330;2022-07-23T13:21:40;98540.59;;;28.78;53.35
41260;BME280;26993;48.958;9.330;2022-07-23T13:24:27;98549.06;;;28.84;54.17
41260;BME280;26993;48.958;9.330;2022-07-23T13:27:14;98544.66;;;28.71;54.28
41260;BME280;26993;48.958;9.330;2022-07-23T13:30:02;98549.81;;;28.37;54.08
41260;BME280;26993;48.958;9.330;2022-07-23T13:32:49;98540.31;;;27.97;55.14
41260;BME280;26993;48.958;9.330;2022-07-23T13:35:36;98544.09;;;28.06;55.58
41260;BME280;26993;48.958;9.330;2022-07-23T13:38:23;98548.69;;;27.91;56.36
41260;BME280;26993;48.958;9.330;2022-07-23T13:41:10;98541.06;;;27.86;55.99
41260;BME280;26993;48.958;9.330;2022-07-23T13:43:57;98536.66;;;28.11;54.75
41260;BME280;26993;48.958;9.330;2022-07-23T13:46:45;98537.84;;;28.31;54.93
41260;BME280;26993;48.958;9.330;2022-07-23T13:49:32;98530.59;;;28.46;55.72
41260;BME280;26993;48.958;9.330;2022-07-23T13:52:18;98532.50;;;28.44;54.58
41260;BME280;26993;48.958;9.330;2022-07-23T13:55:06;98527.63;;;28.62;54.92
41260;BME280;26993;48.958;9.330;2022-07-23T13:57:53;98523.91;;;28.65;53.48
41260;BME280;26993;48.958;9.330;2022-07-23T14:00:42;98528.66;;;28.73;53.45
41260;BME280;26993;48.958;9.330;2022-07-23T14:03:30;98520.78;;;29.07;51.40
41260;BME280;26993;48.958;9.330;2022-07-23T14:06:17;98529.81;;;28.93;52.33
41260;BME280;26993;48.958;9.330;2022-07-23T14:09:04;98517.00;;;28.87;51.63
41260;BME280;26993;48.958;9.330;2022-07-23T14:11:51;98513.97;;;28.80;53.28
41260;BME280;26993;48.958;9.330;2022-07-23T14:14:38;98512.97;;;28.70;52.55
41260;BME280;26993;48.958;9.330;2022-07-23T14:17:26;98510.34;;;28.70;53.34
41260;BME280;26993;48.958;9.330;2022-07-23T14:20:14;98508.84;;;29.12;51.76
41260;BME280;26993;48.958;9.330;2022-07-23T14:23:02;98514.19;;;29.35;50.94
41260;BME280;26993;48.958;9.330;2022-07-23T14:25:49;98506.81;;;29.50;51.19
41260;BME280;26993;48.958;9.330;2022-07-23T14:28:35;98512.50;;;29.57;49.91
41260;BME280;26993;48.958;9.330;2022-07-23T14:31:22;98514.56;;;29.53;49.16
41260;BME280;26993;48.958;9.330;2022-07-23T14:34:09;98509.38;;;29.52;49.78
41260;BME280;26993;48.958;9.330;2022-07-23T14:36:59;98504.75;;;29.76;49.60
41260;BME280;26993;48.958;9.330;2022-07-23T14:39:45;98510.53;;;29.93;48.63
41260;BME280;26993;48.958;9.330;2022-07-23T14:42:32;98506.03;;;30.05;49.75
41260;BME280;26993;48.958;9.330;2022-07-23T14:45:19;98508.25;;;29.77;48.48
41260;BME280;26993;48.958;9.330;2022-07-23T14:48:06;98506.47;;;29.43;49.57
41260;BME280;26993;48.958;9.330;2022-07-23T14:50:53;98511.25;;;29.27;49.09
41260;BME280;26993;48.958;9.330;2022-07-23T14:53:41;98512.38;;;29.36;50.53